sensor_id;sensor_type;location;lat;lon;timestamp;P1;durP1;ratioP1;P2;durP2;ratioP2
1206;SDS011;593;53.184;8.216;2022-08-21T00:01:35;4.57;;;2.33;;
1206;SDS011;593;53.184;8.216;2022-08-21T00:04:04;3.63;;;2.70;;
1206;SDS011;593;53.184;8.216;2022-08-21T00:06:33;3.43;;;2.70;;
1206;SDS011;593;53.184;8.216;2022-08-21T00:09:00;2.00;;;1.90;;
1206;SDS011;593;53.184;8.216;2022-08-21T00:11:26;2.83;;;2.13;;
1206;SDS011;593;53.184;8.216;2022-08-21T00:13:52;1.90;;;1.80;;
1206;SDS011;593;53.184;8.216;2022-08-21T00:16:18;6.27;;;2.93;;
1206;SDS011;593;53.184;8.216;2022-08-21T00:18:43;2.80;;;2.00;;
1206;SDS011;593;53.184;8.216;2022-08-21T00:21:10;3.17;;;2.17;;
1206;SDS011;593;53.184;8.216;2022-08-21T00:23:37;3.23;;;2.17;;
1206;SDS011;593;53.184;8.216;2022-08-21T00:26:03;2.00;;;1.73;;
1206;SDS011;593;53.184;8.216;2022-08-21T00:28:29;2.37;;;2.20;;
1206;SDS011;593;53.184;8.216;2022-08-21T00:30:54;2.33;;;1.90;;
1206;SDS011;593;53.184;8.216;2022-08-21T00:33:19;2.53;;;2.10;;
1206;SDS011;593;53.184;8.216;2022-08-21T00:35:45;2.67;;;1.80;;
1206;SDS011;593;53.184;8.216;2022-08-21T00:38:10;2.77;;;1.87;;
1206;SDS011;593;53.184;8.216;2022-08-21T00:40:41;3.80;;;2.10;;
1206;SDS011;593;53.184;8.216;2022-08-21T00:43:13;4.83;;;2.50;;
1206;SDS011;593;53.184;8.216;2022-08-21T00:45:41;2.80;;;1.93;;
1206;SDS011;593;53.184;8.216;2022-08-21T00:48:07;1.63;;;1.40;;
1206;SDS011;593;53.184;8.216;2022-08-21T00:50:33;2.57;;;2.00;;
1206;SDS011;593;53.184;8.216;2022-08-21T00:53:00;2.97;;;2.00;;
1206;SDS011;593;53.184;8.216;2022-08-21T00:55:28;2.00;;;1.90;;
1206;SDS011;593;53.184;8.216;2022-08-21T00:57:56;1.77;;;1.63;;
1206;SDS011;593;53.184;8.216;2022-08-21T01:00:25;3.13;;;2.23;;
1206;SDS011;593;53.184;8.216;2022-08-21T01:02:57;2.83;;;2.30;;
1206;SDS011;593;53.184;8.216;2022-08-21T01:05:24;3.90;;;1.90;;
1206;SDS011;593;53.184;8.216;2022-08-21T01:07:50;2.00;;;1.80;;
1206;SDS011;593;53.184;8.216;2022-08-21T01:10:16;4.70;;;2.73;;
1206;SDS011;593;53.184;8.216;2022-08-21T01:12:42;3.50;;;2.27;;
1206;SDS011;593;53.184;8.216;2022-08-21T01:15:09;2.53;;;2.33;;
1206;SDS011;593;53.184;8.216;2022-08-21T01:17:35;3.20;;;2.70;;
1206;SDS011;593;53.184;8.216;2022-08-21T01:20:05;2.30;;;2.10;;
1206;SDS011;593;53.184;8.216;2022-08-21T01:22:33;2.40;;;2.20;;
1206;SDS011;593;53.184;8.216;2022-08-21T01:24:58;2.37;;;2.17;;
1206;SDS011;593;53.184;8.216;2022-08-21T01:27:23;2.83;;;2.27;;
1206;SDS011;593;53.184;8.216;2022-08-21T01:29:51;2.13;;;2.03;;
1206;SDS011;593;53.184;8.216;2022-08-21T01:32:22;2.40;;;2.20;;
1206;SDS011;593;53.184;8.216;2022-08-21T01:34:48;5.27;;;2.13;;
1206;SDS011;593;53.184;8.216;2022-08-21T01:37:16;2.17;;;1.87;;
1206;SDS011;593;53.184;8.216;2022-08-21T01:39:42;2.17;;;1.60;;
1206;SDS011;593;53.184;8.216;2022-08-21T01:42:07;5.50;;;2.17;;
1206;SDS011;593;53.184;8.216;2022-08-21T01:44:33;4.60;;;2.37;;
1206;SDS011;593;53.184;8.216;2022-08-21T01:47:00;2.03;;;1.80;;
1206;SDS011;593;53.184;8.216;2022-08-21T01:49:26;2.13;;;1.80;;
1206;SDS011;593;53.184;8.216;2022-08-21T01:51:52;2.67;;;2.40;;
1206;SDS011;593;53.184;8.216;2022-08-21T01:54:18;5.03;;;2.77;;
1206;SDS011;593;53.184;8.216;2022-08-21T01:56:46;2.50;;;2.30;;
1206;SDS011;593;53.184;8.216;2022-08-21T01:59:14;2.40;;;1.83;;
1206;SDS011;593;53.184;8.216;2022-08-21T02:01:40;2.77;;;2.57;;
1206;SDS011;593;53.184;8.216;2022-08-21T02:04:06;5.20;;;2.40;;
1206;SDS011;593;53.184;8.216;2022-08-21T02:06:33;3.60;;;2.07;;
1206;SDS011;593;53.184;8.216;2022-08-21T02:09:00;2.00;;;1.90;;
1206;SDS011;593;53.184;8.216;2022-08-21T02:11:27;2.47;;;2.27;;
1206;SDS011;593;53.184;8.216;2022-08-21T02:13:53;3.10;;;1.77;;
1206;SDS011;593;53.184;8.216;2022-08-21T02:16:18;2.43;;;2.33;;
1206;SDS011;593;53.184;8.216;2022-08-21T02:18:43;2.63;;;2.00;;
1206;SDS011;593;53.184;8.216;2022-08-21T02:21:09;2.17;;;2.07;;
1206;SDS011;593;53.184;8.216;2022-08-21T02:23:34;2.70;;;2.20;;
1206;SDS011;593;53.184;8.216;2022-08-21T02:26:04;2.67;;;1.90;;
1206;SDS011;593;53.184;8.216;2022-08-21T02:28:32;2.93;;;2.43;;
1206;SDS011;593;53.184;8.216;2022-08-21T02:30:58;2.40;;;2.20;;
1206;SDS011;593;53.184;8.216;2022-08-21T02:33:23;2.47;;;2.27;;
1206;SDS011;593;53.184;8.216;2022-08-21T02:35:50;3.00;;;1.83;;
1206;SDS011;593;53.184;8.216;2022-08-21T02:38:17;2.80;;;2.27;;
1206;SDS011;593;53.184;8.216;2022-08-21T02:40:45;2.30;;;1.87;;
1206;SDS011;593;53.184;8.216;2022-08-21T02:43:12;3.20;;;1.80;;
1206;SDS011;593;53.184;8.216;2022-08-21T02:45:39;2.77;;;1.87;;
1206;SDS011;593;53.184;8.216;2022-08-21T02:48:06;3.30;;;2.10;;
1206;SDS011;593;53.184;8.216;2022-08-21T02:50:35;2.40;;;2.07;;
1206;SDS011;593;53.184;8.216;2022-08-21T02:53:03;1.77;;;1.53;;
1206;SDS011;593;53.184;8.216;2022-08-21T02:55:30;2.33;;;2.13;;
1206;SDS011;593;53.184;8.216;2022-08-21T02:57:57;2.40;;;2.20;;
1206;SDS011;593;53.184;8.216;2022-08-21T03:00:23;1.70;;;1.47;;
1206;SDS011;593;53.184;8.216;2022-08-21T03:02:50;2.17;;;1.77;;
1206;SDS011;593;53.184;8.216;2022-08-21T03:05:17;3.97;;;1.50;;
1206;SDS011;593;53.184;8.216;2022-08-21T03:07:43;3.60;;;2.07;;
1206;SDS011;593;53.184;8.216;2022-08-21T03:10:09;1.73;;;1.53;;
1206;SDS011;593;53.184;8.216;2022-08-21T03:12:35;2.20;;;1.93;;
1206;SDS011;593;53.184;8.216;2022-08-21T03:15:05;1.97;;;1.60;;
1206;SDS011;593;53.184;8.216;2022-08-21T03:17:33;2.57;;;1.80;;
1206;SDS011;593;53.184;8.216;2022-08-21T03:19:59;3.40;;;2.13;;
1206;SDS011;593;53.184;8.216;2022-08-21T03:22:25;2.70;;;1.90;;
1206;SDS011;593;53.184;8.216;2022-08-21T03:24:51;1.53;;;1.40;;
1206;SDS011;593;53.184;8.216;2022-08-21T03:27:16;2.07;;;1.87;;
1206;SDS011;593;53.184;8.216;2022-08-21T03:29:42;3.10;;;1.63;;
1206;SDS011;593;53.184;8.216;2022-08-21T03:32:07;1.50;;;1.40;;
1206;SDS011;593;53.184;8.216;2022-08-21T03:34:36;3.50;;;1.93;;
1206;SDS011;593;53.184;8.216;2022-08-21T03:37:02;2.40;;;2.10;;
1206;SDS011;593;53.184;8.216;2022-08-21T03:39:29;2.37;;;2.17;;
1206;SDS011;593;53.184;8.216;2022-08-21T03:41:54;2.23;;;1.87;;
1206;SDS011;593;53.184;8.216;2022-08-21T03:44:20;2.90;;;1.73;;
1206;SDS011;593;53.184;8.216;2022-08-21T03:46:45;2.00;;;1.77;;
1206;SDS011;593;53.184;8.216;2022-08-21T03:49:11;2.83;;;2.50;;
1206;SDS011;593;53.184;8.216;2022-08-21T03:51:37;3.73;;;2.40;;
1206;SDS011;593;53.184;8.216;2022-08-21T03:54:02;2.60;;;2.13;;
1206;SDS011;593;53.184;8.216;2022-08-21T03:56:28;2.43;;;2.20;;
1206;SDS011;593;53.184;8.216;2022-08-21T03:58:53;2.87;;;2.40;;
1206;SDS011;593;53.184;8.216;2022-08-21T04:01:18;3.30;;;2.83;;
1206;SDS011;593;53.184;8.216;2022-08-21T04:03:44;3.63;;;2.53;;
1206;SDS011;593;53.184;8.216;2022-08-21T04:06:09;4.53;;;3.00;;
1206;SDS011;593;53.184;8.216;2022-08-21T04:08:35;2.80;;;2.60;;
1206;SDS011;593;53.184;8.216;2022-08-21T04:11:00;2.70;;;2.50;;
1206;SDS011;593;53.184;8.216;2022-08-21T04:13:26;7.33;;;2.77;;
1206;SDS011;593;53.184;8.216;2022-08-21T04:15:53;3.47;;;3.13;;
1206;SDS011;593;53.184;8.216;2022-08-21T04:18:19;3.33;;;3.03;;
1206;SDS011;593;53.184;8.216;2022-08-21T04:20:45;4.50;;;3.83;;
1206;SDS011;593;53.184;8.216;2022-08-21T04:23:13;2.90;;;2.70;;
1206;SDS011;593;53.184;8.216;2022-08-21T04:25:38;2.70;;;2.50;;
1206;SDS011;593;53.184;8.216;2022-08-21T04:28:04;3.53;;;2.90;;
1206;SDS011;593;53.184;8.216;2022-08-21T04:30:29;2.93;;;2.63;;
1206;SDS011;593;53.184;8.216;2022-08-21T04:32:56;3.57;;;2.90;;
1206;SDS011;593;53.184;8.216;2022-08-21T04:35:22;3.13;;;2.93;;
1206;SDS011;593;53.184;8.216;2022-08-21T04:37:50;5.53;;;4.20;;
1206;SDS011;593;53.184;8.216;2022-08-21T04:40:16;3.77;;;2.87;;
1206;SDS011;593;53.184;8.216;2022-08-21T04:42:45;3.60;;;3.30;;
1206;SDS011;593;53.184;8.216;2022-08-21T04:45:25;4.97;;;3.80;;
1206;SDS011;593;53.184;8.216;2022-08-21T04:47:56;3.50;;;3.20;;
1206;SDS011;593;53.184;8.216;2022-08-21T04:50:28;4.97;;;3.60;;
1206;SDS011;593;53.184;8.216;2022-08-21T04:52:56;8.30;;;4.13;;
1206;SDS011;593;53.184;8.216;2022-08-21T04:55:22;5.30;;;4.17;;
1206;SDS011;593;53.184;8.216;2022-08-21T04:57:49;5.23;;;4.80;;
1206;SDS011;593;53.184;8.216;2022-08-21T05:00:16;4.70;;;3.80;;
1206;SDS011;593;53.184;8.216;2022-08-21T05:02:43;7.43;;;3.80;;
1206;SDS011;593;53.184;8.216;2022-08-21T05:05:10;5.23;;;3.73;;
1206;SDS011;593;53.184;8.216;2022-08-21T05:07:36;5.23;;;4.33;;
1206;SDS011;593;53.184;8.216;2022-08-21T05:10:02;6.00;;;4.20;;
1206;SDS011;593;53.184;8.216;2022-08-21T05:12:28;4.73;;;4.33;;
1206;SDS011;593;53.184;8.216;2022-08-21T05:14:56;4.07;;;3.43;;
1206;SDS011;593;53.184;8.216;2022-08-21T05:17:21;4.20;;;3.90;;
1206;SDS011;593;53.184;8.216;2022-08-21T05:19:47;5.17;;;4.70;;
1206;SDS011;593;53.184;8.216;2022-08-21T05:22:18;5.90;;;5.10;;
1206;SDS011;593;53.184;8.216;2022-08-21T05:24:45;5.63;;;4.37;;
1206;SDS011;593;53.184;8.216;2022-08-21T05:27:10;4.50;;;4.07;;
1206;SDS011;593;53.184;8.216;2022-08-21T05:29:35;4.80;;;4.37;;
1206;SDS011;593;53.184;8.216;2022-08-21T05:32:01;4.67;;;4.00;;
1206;SDS011;593;53.184;8.216;2022-08-21T05:34:34;5.13;;;4.50;;
1206;SDS011;593;53.184;8.216;2022-08-21T05:36:59;5.13;;;4.27;;
1206;SDS011;593;53.184;8.216;2022-08-21T05:39:24;5.20;;;4.80;;
1206;SDS011;593;53.184;8.216;2022-08-21T05:41:50;6.60;;;5.37;;
1206;SDS011;593;53.184;8.216;2022-08-21T05:44:15;6.03;;;5.53;;
1206;SDS011;593;53.184;8.216;2022-08-21T05:46:41;6.00;;;5.50;;
1206;SDS011;593;53.184;8.216;2022-08-21T05:49:06;6.23;;;5.63;;
1206;SDS011;593;53.184;8.216;2022-08-21T05:51:31;8.70;;;5.70;;
1206;SDS011;593;53.184;8.216;2022-08-21T05:53:57;7.63;;;6.83;;
1206;SDS011;593;53.184;8.216;2022-08-21T05:56:22;8.70;;;5.43;;
1206;SDS011;593;53.184;8.216;2022-08-21T05:58:48;6.50;;;5.60;;
1206;SDS011;593;53.184;8.216;2022-08-21T06:01:13;9.77;;;6.63;;
1206;SDS011;593;53.184;8.216;2022-08-21T06:03:40;6.93;;;6.13;;
1206;SDS011;593;53.184;8.216;2022-08-21T06:06:06;10.03;;;7.10;;
1206;SDS011;593;53.184;8.216;2022-08-21T06:08:31;6.00;;;5.40;;
1206;SDS011;593;53.184;8.216;2022-08-21T06:10:58;7.53;;;5.33;;
1206;SDS011;593;53.184;8.216;2022-08-21T06:13:24;7.23;;;6.37;;
1206;SDS011;593;53.184;8.216;2022-08-21T06:15:59;6.57;;;5.70;;
1206;SDS011;593;53.184;8.216;2022-08-21T06:18:26;7.90;;;6.17;;
1206;SDS011;593;53.184;8.216;2022-08-21T06:20:51;8.20;;;5.70;;
1206;SDS011;593;53.184;8.216;2022-08-21T06:23:16;5.97;;;5.33;;
1206;SDS011;593;53.184;8.216;2022-08-21T06:25:42;5.63;;;5.13;;
1206;SDS011;593;53.184;8.216;2022-08-21T06:28:08;5.27;;;4.60;;
1206;SDS011;593;53.184;8.216;2022-08-21T06:30:35;12.80;;;5.03;;
1206;SDS011;593;53.184;8.216;2022-08-21T06:33:02;8.40;;;4.43;;
1206;SDS011;593;53.184;8.216;2022-08-21T06:35:28;4.90;;;3.93;;
1206;SDS011;593;53.184;8.216;2022-08-21T06:37:54;8.00;;;4.57;;
1206;SDS011;593;53.184;8.216;2022-08-21T06:40:20;4.57;;;4.20;;
1206;SDS011;593;53.184;8.216;2022-08-21T06:42:46;10.77;;;4.40;;
1206;SDS011;593;53.184;8.216;2022-08-21T06:45:12;6.40;;;4.07;;
1206;SDS011;593;53.184;8.216;2022-08-21T06:47:37;5.20;;;3.80;;
1206;SDS011;593;53.184;8.216;2022-08-21T06:50:03;4.90;;;4.37;;
1206;SDS011;593;53.184;8.216;2022-08-21T06:52:29;4.63;;;3.30;;
1206;SDS011;593;53.184;8.216;2022-08-21T06:54:55;8.60;;;3.73;;
1206;SDS011;593;53.184;8.216;2022-08-21T06:57:20;4.40;;;3.03;;
1206;SDS011;593;53.184;8.216;2022-08-21T06:59:46;3.40;;;3.07;;
1206;SDS011;593;53.184;8.216;2022-08-21T07:02:12;10.00;;;3.87;;
1206;SDS011;593;53.184;8.216;2022-08-21T07:04:37;4.80;;;3.37;;
1206;SDS011;593;53.184;8.216;2022-08-21T07:07:02;4.03;;;3.00;;
1206;SDS011;593;53.184;8.216;2022-08-21T07:09:28;4.77;;;3.10;;
1206;SDS011;593;53.184;8.216;2022-08-21T07:11:54;3.17;;;2.93;;
1206;SDS011;593;53.184;8.216;2022-08-21T07:14:21;2.93;;;2.50;;
1206;SDS011;593;53.184;8.216;2022-08-21T07:16:47;3.23;;;3.03;;
1206;SDS011;593;53.184;8.216;2022-08-21T07:19:13;4.13;;;2.50;;
1206;SDS011;593;53.184;8.216;2022-08-21T07:21:39;5.20;;;3.03;;
1206;SDS011;593;53.184;8.216;2022-08-21T07:24:04;2.63;;;2.30;;
1206;SDS011;593;53.184;8.216;2022-08-21T07:26:29;2.80;;;2.40;;
1206;SDS011;593;53.184;8.216;2022-08-21T07:28:55;3.70;;;2.03;;
1206;SDS011;593;53.184;8.216;2022-08-21T07:31:21;3.83;;;2.60;;
1206;SDS011;593;53.184;8.216;2022-08-21T07:33:48;4.47;;;2.93;;
1206;SDS011;593;53.184;8.216;2022-08-21T07:36:13;3.97;;;2.80;;
1206;SDS011;593;53.184;8.216;2022-08-21T07:38:38;3.77;;;2.10;;
1206;SDS011;593;53.184;8.216;2022-08-21T07:41:15;2.00;;;1.90;;
1206;SDS011;593;53.184;8.216;2022-08-21T07:43:42;5.70;;;2.13;;
1206;SDS011;593;53.184;8.216;2022-08-21T07:46:07;3.27;;;2.17;;
1206;SDS011;593;53.184;8.216;2022-08-21T07:48:33;2.50;;;2.10;;
1206;SDS011;593;53.184;8.216;2022-08-21T07:50:58;4.63;;;2.20;;
1206;SDS011;593;53.184;8.216;2022-08-21T07:53:27;3.37;;;1.63;;
1206;SDS011;593;53.184;8.216;2022-08-21T07:55:57;3.67;;;1.77;;
1206;SDS011;593;53.184;8.216;2022-08-21T07:58:23;2.40;;;2.03;;
1206;SDS011;593;53.184;8.216;2022-08-21T08:00:48;4.33;;;2.10;;
1206;SDS011;593;53.184;8.216;2022-08-21T08:03:14;5.97;;;1.90;;
1206;SDS011;593;53.184;8.216;2022-08-21T08:05:39;3.97;;;1.40;;
1206;SDS011;593;53.184;8.216;2022-08-21T08:08:05;2.03;;;1.70;;
1206;SDS011;593;53.184;8.216;2022-08-21T08:10:30;2.50;;;1.60;;
1206;SDS011;593;53.184;8.216;2022-08-21T08:13:00;3.87;;;1.50;;
1206;SDS011;593;53.184;8.216;2022-08-21T08:15:31;1.97;;;1.20;;
1206;SDS011;593;53.184;8.216;2022-08-21T08:17:58;2.13;;;1.40;;
1206;SDS011;593;53.184;8.216;2022-08-21T08:20:31;4.30;;;1.60;;
1206;SDS011;593;53.184;8.216;2022-08-21T08:23:14;3.10;;;1.40;;
1206;SDS011;593;53.184;8.216;2022-08-21T08:25:49;3.70;;;1.60;;
1206;SDS011;593;53.184;8.216;2022-08-21T08:28:16;2.93;;;1.30;;
1206;SDS011;593;53.184;8.216;2022-08-21T08:30:49;8.77;;;1.77;;
1206;SDS011;593;53.184;8.216;2022-08-21T08:33:18;2.47;;;1.33;;
1206;SDS011;593;53.184;8.216;2022-08-21T08:35:45;3.07;;;0.97;;
1206;SDS011;593;53.184;8.216;2022-08-21T08:38:13;4.20;;;1.80;;
1206;SDS011;593;53.184;8.216;2022-08-21T08:43:40;4.20;;;1.33;;
1206;SDS011;593;53.184;8.216;2022-08-21T08:46:16;4.27;;;1.30;;
1206;SDS011;593;53.184;8.216;2022-08-21T08:54:59;13.50;;;12.30;;
1206;SDS011;593;53.184;8.216;2022-08-21T08:57:28;8.80;;;8.00;;
1206;SDS011;593;53.184;8.216;2022-08-21T08:59:56;4.30;;;3.60;;
1206;SDS011;593;53.184;8.216;2022-08-21T09:02:24;4.70;;;2.30;;
1206;SDS011;593;53.184;8.216;2022-08-21T09:04:52;3.83;;;3.53;;
1206;SDS011;593;53.184;8.216;2022-08-21T09:12:50;5.80;;;2.00;;
1206;SDS011;593;53.184;8.216;2022-08-21T09:15:35;3.93;;;2.07;;
1206;SDS011;593;53.184;8.216;2022-08-21T09:21:04;2.83;;;1.40;;
1206;SDS011;593;53.184;8.216;2022-08-21T09:28:44;5.10;;;1.33;;
1206;SDS011;593;53.184;8.216;2022-08-21T09:31:21;2.23;;;1.43;;
1206;SDS011;593;53.184;8.216;2022-08-21T09:33:48;4.23;;;1.40;;
1206;SDS011;593;53.184;8.216;2022-08-21T09:36:33;5.13;;;1.70;;
1206;SDS011;593;53.184;8.216;2022-08-21T09:39:05;1.83;;;1.20;;
1206;SDS011;593;53.184;8.216;2022-08-21T09:41:32;3.60;;;1.93;;
1206;SDS011;593;53.184;8.216;2022-08-21T09:44:00;2.70;;;1.20;;
1206;SDS011;593;53.184;8.216;2022-08-21T09:46:26;4.10;;;1.40;;
1206;SDS011;593;53.184;8.216;2022-08-21T09:48:57;5.33;;;1.90;;
1206;SDS011;593;53.184;8.216;2022-08-21T09:51:26;2.33;;;1.40;;
1206;SDS011;593;53.184;8.216;2022-08-21T09:56:32;4.60;;;1.37;;
1206;SDS011;593;53.184;8.216;2022-08-21T09:59:25;3.70;;;1.63;;
1206;SDS011;593;53.184;8.216;2022-08-21T10:01:55;2.83;;;1.40;;
1206;SDS011;593;53.184;8.216;2022-08-21T10:04:23;4.27;;;1.13;;
1206;SDS011;593;53.184;8.216;2022-08-21T10:07:10;2.40;;;1.30;;
1206;SDS011;593;53.184;8.216;2022-08-21T10:09:37;4.37;;;1.57;;
1206;SDS011;593;53.184;8.216;2022-08-21T10:12:15;2.17;;;1.30;;
1206;SDS011;593;53.184;8.216;2022-08-21T10:20:20;3.20;;;1.83;;
1206;SDS011;593;53.184;8.216;2022-08-21T10:23:03;2.07;;;1.23;;
1206;SDS011;593;53.184;8.216;2022-08-21T10:25:52;1.47;;;1.37;;
1206;SDS011;593;53.184;8.216;2022-08-21T10:31:45;1.07;;;0.97;;
1206;SDS011;593;53.184;8.216;2022-08-21T10:39:49;1.40;;;1.00;;
1206;SDS011;593;53.184;8.216;2022-08-21T10:55:31;3.93;;;1.43;;
1206;SDS011;593;53.184;8.216;2022-08-21T10:58:05;2.60;;;0.90;;
1206;SDS011;593;53.184;8.216;2022-08-21T11:05:58;2.17;;;1.00;;
1206;SDS011;593;53.184;8.216;2022-08-21T11:08:33;4.10;;;1.20;;
1206;SDS011;593;53.184;8.216;2022-08-21T11:11:08;1.97;;;1.10;;
1206;SDS011;593;53.184;8.216;2022-08-21T11:13:48;1.73;;;1.20;;
1206;SDS011;593;53.184;8.216;2022-08-21T11:19:12;1.87;;;1.30;;
1206;SDS011;593;53.184;8.216;2022-08-21T11:21:59;1.67;;;1.10;;
1206;SDS011;593;53.184;8.216;2022-08-21T11:30:04;2.63;;;1.60;;
1206;SDS011;593;53.184;8.216;2022-08-21T11:40:13;1.20;;;1.10;;
1206;SDS011;593;53.184;8.216;2022-08-21T11:48:47;3.07;;;1.50;;
1206;SDS011;593;53.184;8.216;2022-08-21T11:57:03;1.00;;;0.90;;
1206;SDS011;593;53.184;8.216;2022-08-21T12:02:06;1.57;;;0.97;;
1206;SDS011;593;53.184;8.216;2022-08-21T12:04:42;2.50;;;1.33;;
1206;SDS011;593;53.184;8.216;2022-08-21T12:07:15;1.80;;;1.50;;
1206;SDS011;593;53.184;8.216;2022-08-21T12:09:53;1.07;;;0.90;;
1206;SDS011;593;53.184;8.216;2022-08-21T12:17:54;1.50;;;0.90;;
1206;SDS011;593;53.184;8.216;2022-08-21T12:20:57;3.20;;;1.27;;
1206;SDS011;593;53.184;8.216;2022-08-21T12:23:27;2.50;;;1.10;;
1206;SDS011;593;53.184;8.216;2022-08-21T12:26:03;1.33;;;0.80;;
1206;SDS011;593;53.184;8.216;2022-08-21T12:28:39;2.27;;;1.20;;
1206;SDS011;593;53.184;8.216;2022-08-21T12:31:05;1.97;;;0.80;;
1206;SDS011;593;53.184;8.216;2022-08-21T12:33:43;1.23;;;0.90;;
1206;SDS011;593;53.184;8.216;2022-08-21T12:36:22;1.50;;;1.40;;
1206;SDS011;593;53.184;8.216;2022-08-21T12:38:52;0.80;;;0.80;;
1206;SDS011;593;53.184;8.216;2022-08-21T12:41:30;0.87;;;0.87;;
1206;SDS011;593;53.184;8.216;2022-08-21T12:44:00;1.73;;;1.00;;
1206;SDS011;593;53.184;8.216;2022-08-21T12:46:37;1.47;;;0.83;;
1206;SDS011;593;53.184;8.216;2022-08-21T12:49:14;1.20;;;0.70;;
1206;SDS011;593;53.184;8.216;2022-08-21T12:51:49;2.07;;;0.93;;
1206;SDS011;593;53.184;8.216;2022-08-21T12:54:23;2.13;;;1.00;;
1206;SDS011;593;53.184;8.216;2022-08-21T12:56:58;2.67;;;1.00;;
1206;SDS011;593;53.184;8.216;2022-08-21T12:59:25;1.43;;;0.90;;
1206;SDS011;593;53.184;8.216;2022-08-21T13:01:51;1.20;;;0.90;;
1206;SDS011;593;53.184;8.216;2022-08-21T13:04:21;1.70;;;0.90;;
1206;SDS011;593;53.184;8.216;2022-08-21T13:06:57;1.40;;;0.90;;
1206;SDS011;593;53.184;8.216;2022-08-21T13:09:26;1.60;;;1.23;;
1206;SDS011;593;53.184;8.216;2022-08-21T13:11:54;1.10;;;0.80;;
1206;SDS011;593;53.184;8.216;2022-08-21T13:14:29;1.37;;;0.90;;
1206;SDS011;593;53.184;8.216;2022-08-21T13:16:58;1.20;;;0.90;;
1206;SDS011;593;53.184;8.216;2022-08-21T13:19:25;1.70;;;1.40;;
1206;SDS011;593;53.184;8.216;2022-08-21T13:21:51;1.57;;;1.20;;
1206;SDS011;593;53.184;8.216;2022-08-21T13:26:42;1.73;;;0.97;;
1206;SDS011;593;53.184;8.216;2022-08-21T13:29:09;2.53;;;1.00;;
1206;SDS011;593;53.184;8.216;2022-08-21T13:31:37;1.33;;;1.00;;
1206;SDS011;593;53.184;8.216;2022-08-21T13:34:07;1.37;;;1.00;;
1206;SDS011;593;53.184;8.216;2022-08-21T13:36:37;1.47;;;1.00;;
1206;SDS011;593;53.184;8.216;2022-08-21T13:39:10;0.90;;;0.80;;
1206;SDS011;593;53.184;8.216;2022-08-21T13:41:40;1.00;;;0.70;;
1206;SDS011;593;53.184;8.216;2022-08-21T13:44:19;1.33;;;0.90;;
1206;SDS011;593;53.184;8.216;2022-08-21T13:46:51;2.80;;;0.90;;
1206;SDS011;593;53.184;8.216;2022-08-21T13:49:18;2.70;;;1.00;;
1206;SDS011;593;53.184;8.216;2022-08-21T13:51:48;1.53;;;0.80;;
1206;SDS011;593;53.184;8.216;2022-08-21T13:54:16;1.67;;;1.00;;
1206;SDS011;593;53.184;8.216;2022-08-21T13:56:48;0.87;;;0.83;;
1206;SDS011;593;53.184;8.216;2022-08-21T13:59:23;1.03;;;0.93;;
1206;SDS011;593;53.184;8.216;2022-08-21T14:04:59;1.37;;;0.90;;
1206;SDS011;593;53.184;8.216;2022-08-21T14:07:31;2.03;;;1.00;;
1206;SDS011;593;53.184;8.216;2022-08-21T14:10:08;1.03;;;0.80;;
1206;SDS011;593;53.184;8.216;2022-08-21T14:12:59;0.97;;;0.80;;
1206;SDS011;593;53.184;8.216;2022-08-21T14:15:28;2.20;;;0.70;;
1206;SDS011;593;53.184;8.216;2022-08-21T14:18:06;1.17;;;0.80;;
1206;SDS011;593;53.184;8.216;2022-08-21T14:20:35;1.03;;;0.67;;
1206;SDS011;593;53.184;8.216;2022-08-21T14:23:01;1.67;;;0.87;;
1206;SDS011;593;53.184;8.216;2022-08-21T14:25:29;1.60;;;0.83;;
1206;SDS011;593;53.184;8.216;2022-08-21T14:30:48;1.00;;;0.90;;
1206;SDS011;593;53.184;8.216;2022-08-21T14:33:25;2.70;;;1.00;;
1206;SDS011;593;53.184;8.216;2022-08-21T14:35:56;1.20;;;0.80;;
1206;SDS011;593;53.184;8.216;2022-08-21T14:38:22;2.07;;;1.10;;
1206;SDS011;593;53.184;8.216;2022-08-21T14:40:51;1.13;;;0.70;;
1206;SDS011;593;53.184;8.216;2022-08-21T14:43:18;1.03;;;0.60;;
1206;SDS011;593;53.184;8.216;2022-08-21T14:45:45;2.13;;;1.00;;
1206;SDS011;593;53.184;8.216;2022-08-21T14:48:11;1.27;;;0.70;;
1206;SDS011;593;53.184;8.216;2022-08-21T14:50:37;1.63;;;0.80;;
1206;SDS011;593;53.184;8.216;2022-08-21T14:53:03;2.17;;;0.83;;
1206;SDS011;593;53.184;8.216;2022-08-21T14:55:29;0.90;;;0.83;;
1206;SDS011;593;53.184;8.216;2022-08-21T14:58:15;0.70;;;0.70;;
1206;SDS011;593;53.184;8.216;2022-08-21T15:00:41;1.50;;;1.30;;
1206;SDS011;593;53.184;8.216;2022-08-21T15:03:06;1.57;;;0.90;;
1206;SDS011;593;53.184;8.216;2022-08-21T15:05:32;0.70;;;0.70;;
1206;SDS011;593;53.184;8.216;2022-08-21T15:07:57;2.60;;;0.90;;
1206;SDS011;593;53.184;8.216;2022-08-21T15:10:22;2.20;;;1.60;;
1206;SDS011;593;53.184;8.216;2022-08-21T15:12:48;0.90;;;0.70;;
1206;SDS011;593;53.184;8.216;2022-08-21T15:15:14;0.90;;;0.80;;
1206;SDS011;593;53.184;8.216;2022-08-21T15:17:39;1.13;;;0.70;;
1206;SDS011;593;53.184;8.216;2022-08-21T15:20:04;1.60;;;0.80;;
1206;SDS011;593;53.184;8.216;2022-08-21T15:22:31;2.33;;;1.00;;
1206;SDS011;593;53.184;8.216;2022-08-21T15:24:56;1.37;;;0.90;;
1206;SDS011;593;53.184;8.216;2022-08-21T15:27:21;1.73;;;0.77;;
1206;SDS011;593;53.184;8.216;2022-08-21T15:29:47;1.57;;;0.90;;
1206;SDS011;593;53.184;8.216;2022-08-21T15:32:16;1.80;;;1.10;;
1206;SDS011;593;53.184;8.216;2022-08-21T15:34:45;0.90;;;0.80;;
1206;SDS011;593;53.184;8.216;2022-08-21T15:37:10;0.90;;;0.80;;
1206;SDS011;593;53.184;8.216;2022-08-21T15:39:35;1.10;;;1.00;;
1206;SDS011;593;53.184;8.216;2022-08-21T15:42:02;1.87;;;0.93;;
1206;SDS011;593;53.184;8.216;2022-08-21T15:44:28;1.23;;;1.13;;
1206;SDS011;593;53.184;8.216;2022-08-21T15:46:56;2.10;;;1.03;;
1206;SDS011;593;53.184;8.216;2022-08-21T15:49:23;3.93;;;0.90;;
1206;SDS011;593;53.184;8.216;2022-08-21T15:51:49;1.20;;;1.10;;
1206;SDS011;593;53.184;8.216;2022-08-21T15:54:15;1.83;;;1.10;;
1206;SDS011;593;53.184;8.216;2022-08-21T15:56:43;1.00;;;0.80;;
1206;SDS011;593;53.184;8.216;2022-08-21T15:59:19;1.37;;;0.90;;
1206;SDS011;593;53.184;8.216;2022-08-21T16:01:47;1.20;;;1.10;;
1206;SDS011;593;53.184;8.216;2022-08-21T16:04:22;1.40;;;1.30;;
1206;SDS011;593;53.184;8.216;2022-08-21T16:06:52;1.93;;;1.10;;
1206;SDS011;593;53.184;8.216;2022-08-21T16:09:17;1.93;;;0.97;;
1206;SDS011;593;53.184;8.216;2022-08-21T16:11:43;0.97;;;0.87;;
1206;SDS011;593;53.184;8.216;2022-08-21T16:14:10;1.73;;;0.90;;
1206;SDS011;593;53.184;8.216;2022-08-21T16:16:37;0.87;;;0.80;;
1206;SDS011;593;53.184;8.216;2022-08-21T16:19:02;2.63;;;1.10;;
1206;SDS011;593;53.184;8.216;2022-08-21T16:21:30;3.27;;;1.20;;
1206;SDS011;593;53.184;8.216;2022-08-21T16:23:56;1.93;;;1.03;;
1206;SDS011;593;53.184;8.216;2022-08-21T16:26:22;3.83;;;1.10;;
1206;SDS011;593;53.184;8.216;2022-08-21T16:28:47;2.63;;;1.43;;
1206;SDS011;593;53.184;8.216;2022-08-21T16:31:15;1.87;;;1.63;;
1206;SDS011;593;53.184;8.216;2022-08-21T16:33:45;2.57;;;1.10;;
1206;SDS011;593;53.184;8.216;2022-08-21T16:36:17;1.60;;;1.30;;
1206;SDS011;593;53.184;8.216;2022-08-21T16:38:42;1.50;;;1.17;;
1206;SDS011;593;53.184;8.216;2022-08-21T16:41:10;3.67;;;1.20;;
1206;SDS011;593;53.184;8.216;2022-08-21T16:43:37;2.93;;;0.90;;
1206;SDS011;593;53.184;8.216;2022-08-21T16:46:04;1.70;;;1.50;;
1206;SDS011;593;53.184;8.216;2022-08-21T16:48:30;4.43;;;1.40;;
1206;SDS011;593;53.184;8.216;2022-08-21T16:50:56;3.73;;;1.63;;
1206;SDS011;593;53.184;8.216;2022-08-21T16:53:22;1.53;;;1.13;;
1206;SDS011;593;53.184;8.216;2022-08-21T16:55:47;1.30;;;1.20;;
1206;SDS011;593;53.184;8.216;2022-08-21T16:58:20;3.20;;;1.53;;
1206;SDS011;593;53.184;8.216;2022-08-21T17:00:49;2.50;;;1.83;;
1206;SDS011;593;53.184;8.216;2022-08-21T17:03:16;4.27;;;1.60;;
1206;SDS011;593;53.184;8.216;2022-08-21T17:05:45;2.30;;;1.40;;
1206;SDS011;593;53.184;8.216;2022-08-21T17:08:11;5.00;;;1.90;;
1206;SDS011;593;53.184;8.216;2022-08-21T17:10:37;3.47;;;1.20;;
1206;SDS011;593;53.184;8.216;2022-08-21T17:13:04;1.70;;;1.10;;
1206;SDS011;593;53.184;8.216;2022-08-21T17:15:33;3.50;;;1.73;;
1206;SDS011;593;53.184;8.216;2022-08-21T17:18:01;4.53;;;1.30;;
1206;SDS011;593;53.184;8.216;2022-08-21T17:20:28;1.80;;;1.30;;